PDT,Max TemperatureF,Mean TemperatureF,Min TemperatureF,Max Dew PointF,MeanDew PointF,Min DewpointF,Max Humidity, Mean Humidity, Min Humidity, Max Sea Level PressureIn, Mean Sea Level PressureIn, Min Sea Level PressureIn, Max VisibilityMiles, Mean VisibilityMiles, Min VisibilityMiles, Max Wind SpeedMPH, Mean Wind SpeedMPH, Max Gust SpeedMPH,PrecipitationIn, CloudCover, Events, WindDirDegrees
2013-6-1,79,71,62,60,57,54,78,64,50,29.87,29.83,29.76,10,8,5,13,4,16,0.00,2,,248
2013-6-2,73,68,63,60,58,56,84,75,66,29.85,29.82,29.78,10,7,4,17,5,29,0.00,8,,249
2013-6-3,76,70,63,58,56,55,84,69,53,29.92,29.86,29.79,10,10,6,15,6,24,0.00,7,,245
2013-6-4,74,67,60,57,55,52,78,66,53,30.00,29.95,29.88,10,10,8,16,6,20,0.00,5,,249
2013-6-5,73,65,57,55,53,49,77,65,53,30.04,29.99,29.95,10,10,10,15,5,20,0.00,5,,253
2013-6-6,72,66,59,56,54,52,78,68,57,29.98,29.94,29.89,10,10,9,14,4,18,T,6,,243
2013-6-7,73,68,62,57,56,55,78,68,57,29.93,29.87,29.79,10,10,7,13,5,18,0.00,7,,234
2013-6-8,70,67,64,57,56,56,78,71,63,29.93,29.87,29.81,10,9,6,14,4,17,0.00,8,,213
2013-6-9,71,67,62,58,57,54,84,75,66,29.94,29.92,29.88,10,8,4,15,5,18,0.00,8,,217
2013-6-10,77,71,64,57,54,51,78,61,43,29.98,29.95,29.89,10,10,10,16,5,21,0.00,4,,233
2013-6-11,80,70,60,58,57,53,78,63,48,29.96,29.94,29.91,10,10,10,14,6,17,0.00,1,,264
2013-6-12,73,68,63,58,57,55,84,73,61,30.06,30.00,29.95,10,10,9,14,4,18,0.00,8,,209
2013-6-13,74,68,62,58,57,54,78,68,57,30.04,29.99,29.92,10,9,7,14,4,21,0.00,5,,214
2013-6-14,76,67,57,58,56,51,80,67,54,29.94,29.91,29.87,10,9,7,16,6,20,0.00,3,,251
2013-6-15,76,70,64,56,55,54,73,61,49,30.00,29.97,29.91,10,10,8,15,6,21,0.00,5,,238
2013-6-16,76,69,62,57,55,54,78,64,50,30.06,30.01,29.98,10,10,8,14,4,23,0.00,3,,215
2013-6-17,79,69,59,58,56,52,84,65,45,30.01,29.96,29.90,10,6,0,14,5,20,0.00,3,,216
2013-6-18,77,69,60,57,54,52,73,60,46,29.95,29.90,29.86,10,10,8,15,6,18,0.00,0,,203
2013-6-19,84,71,58,56,52,46,78,53,28,29.90,29.85,29.80,10,10,9,14,5,18,0.00,0,,195
2013-6-20,81,70,58,58,52,48,67,53,39,29.88,29.85,29.83,10,10,9,15,5,18,0.00,0,,195
2013-6-21,79,68,57,58,53,48,72,58,43,29.92,29.88,29.86,10,10,7,15,4,20,0.00,0,,223
2013-6-22,79,70,60,58,55,50,72,59,45,29.94,29.89,29.85,10,10,8,15,5,20,0.00,0,,242
2013-6-23,75,67,59,58,55,52,73,63,53,29.91,29.87,29.83,10,10,8,13,5,17,0.00,3,,231
2013-6-24,76,69,61,61,57,53,78,66,54,29.96,29.92,29.85,10,10,10,15,5,18,0.00,6,,224
2013-6-25,75,70,65,59,58,57,84,71,57,30.03,29.97,29.93,10,10,8,14,4,20,0.00,4,,241
2013-6-26,81,73,65,61,60,58,78,64,49,30.01,29.97,29.94,10,10,8,13,4,16,0.00,0,,232
2013-6-27,85,76,67,64,61,59,78,63,48,30.04,30.01,29.98,10,10,8,13,5,17,0.00,0,,254
2013-6-28,87,77,66,63,61,59,81,62,42,29.99,29.95,29.90,10,7,2,12,5,15,0.00,3,,278
2013-6-29,89,77,65,62,60,58,73,57,40,29.90,29.83,29.76,10,10,8,13,4,16,0.00,0,,213
2013-6-30,89,78,67,65,62,57,78,59,39,29.83,29.77,29.73,10,9,7,17,6,24,0.00,0,,250